To NAV CANADA Home Page Login to a new session Search on AWWS site Feedback and Comments Disclaimer Vers la page française équivalente Tips FAQ What's new on the site To the Forecasts and Observations / NOTAM section To "File a Flight Plan" website Publications and other links Update of the User's profile FIC Telephone Numbers My Weather Data Folder Route Weather Data Regional Weather Data Local Weather Data To the Forecasts and Observations / NOTAM section
Request Generated 04/19/2015 at 07:52:38 UTC . Weather information available at that time is displayed.

METAR/TAF

HAMILTON/ON    

METAR CYHM 190700Z 05016KT 15SM SKC 06/M03 A3018 RMK SLP223=
METAR CYHM 190600Z 04012KT 15SM SKC 07/M03 A3019 RMK SLP225=
METAR CYHM 190500Z 03011KT 15SM SKC 07/M02 A3018 RMK SLP221=

TAF CYHM 190538Z 1906/2006 03012KT P6SM FEW250
BECMG 1910/1912 06012G22KT
BECMG 1913/1915 06015G25KT
FM192300 05015G25KT P6SM FEW060 OVC160
FM200300 06010KT P6SM -RA BKN040 OVC080
FM200500 08012G22KT 3SM -RA BR BKN005 OVC025
RMK NXT FCST BY 191200Z=
Your time UTC time
Weather data provided by Environment Canada and NAV CANADA